ブラザヴィル の空港の天気 - METARとTAF

ブラザビル/マヤマヤ空港 ( FCBB / BZV ) - コンゴ共和国 ブラザヴィル
飛行場実況気象(Metar)
観測時間10/20 17:00 WAT (10/20 16:00 UTC)
風向・風速南 2m/s
視程10km以上
天気現象
全天の4割程度の雲 雲底高度 610m
少しの雲 雲底高度 910m
気温31℃
湿度55%
気圧1010hPa
METARFCBB 201600Z 17004KT 120V200 9999 SCT020 FEW030CB 31/21 Q1010 NOSIG
過去の天気等 Google飛行場航空写真 Wunderground天気予報

過去48時間のMETAR

飛行場予報(TAF)
発表時間: 10/20 12:00 WAT (10/20 11:00 UTC)
予報対象時間: 20日13時 WAT ~ 21日19時 WAT
風向・風速西南西 2m/s
視程10km以上
全天の4割程度の雲 雲底高度 610m
少しの積乱雲 雲底高度 910m
20日16時 WAT ~ 20日19時 WAT に 確率 30% で一時的に
天気現象
20日22時 WAT ~ 20日24時 WAT に徐々に
全天の8割程度の雲 雲底高度 460m
少しの積乱雲 雲底高度 790m
21日2時 WAT から 確率 40% で
視程4000m
天気現象雷雨
TAF FCBB 201100Z 2012/2118 24004KT 9999 SCT020 FEW030CB
PROB30 TEMPO 2015/2018 TS
BECMG 2021/2023 BKN015 FEW026CB
PROB40 2101/2104 4000 TSRA